Time;durP1;ratioP1;P1;durP2;ratioP2;P2;SDS_P1;SDS_P2;PMS_P1;PMS_P2;Temp;Humidity;BMP_temperature;BMP_pressure;BME280_temperature;BME280_humidity;BME280_pressure;Samples;Min_cycle;Max_cycle;Signal;HPM_P1;HPM_P2
2022/12/02 00:01:49;;;;;;;39.08;22.48;;;4.10;99.80;;;;;;5030643;28;20041;-71
2022/12/02 00:04:25;;;;;;;39.63;24.20;;;4.10;99.80;;;;;;5032105;28;20093;-70
2022/12/02 00:06:52;;;;;;;41.78;24.48;;;4.10;99.80;;;;;;5034435;28;20038;-71
2022/12/02 00:09:32;;;;;;;43.42;23.30;;;4.10;99.90;;;;;;5033041;28;20394;-70
2022/12/02 00:12:00;;;;;;;39.03;22.88;;;4.20;99.90;;;;;;5030190;28;20044;-70
2022/12/02 00:14:34;;;;;;;41.90;25.25;;;4.20;99.80;;;;;;5033814;28;20067;-71
2022/12/02 00:17:00;;;;;;;47.67;26.75;;;4.20;99.80;;;;;;5033630;28;20021;-70
2022/12/02 00:19:25;;;;;;;41.70;22.88;;;4.20;99.70;;;;;;5047383;28;20156;-71
2022/12/02 00:21:51;;;;;;;46.95;26.02;;;4.10;99.70;;;;;;5033311;28;20072;-71
2022/12/02 00:24:18;;;;;;;51.95;26.50;;;4.10;99.80;;;;;;5033821;28;20079;-71
2022/12/02 00:26:44;;;;;;;48.53;25.90;;;4.10;99.80;;;;;;5028577;28;20103;-71
2022/12/02 00:29:11;;;;;;;42.97;25.63;;;4.00;99.80;;;;;;5032141;28;20112;-71
2022/12/02 00:31:37;;;;;;;47.30;24.65;;;4.10;99.80;;;;;;5032978;28;20022;-71
2022/12/02 00:34:03;;;;;;;44.17;25.33;;;4.00;99.80;;;;;;5030058;28;20480;-71
2022/12/02 00:36:29;;;;;;;47.67;28.25;;;4.10;99.90;;;;;;5029194;28;20025;-71
2022/12/02 00:38:55;;;;;;;42.42;25.65;;;4.00;99.90;;;;;;5032514;28;20025;-71
2022/12/02 00:41:24;;;;;;;44.60;25.88;;;4.10;99.90;;;;;;5028383;28;20034;-71
2022/12/02 00:46:36;;;;;;;39.15;21.80;;;4.00;99.90;;;;;;5032810;28;20053;-70
2022/12/02 00:49:09;;;;;;;45.55;25.67;;;4.00;99.90;;;;;;5031492;28;20041;-70
2022/12/02 00:51:36;;;;;;;42.97;24.33;;;4.00;99.90;;;;;;5017496;28;20108;-70
2022/12/02 00:54:03;;;;;;;48.22;25.73;;;4.00;99.90;;;;;;5031309;28;20087;-70
2022/12/02 00:56:29;;;;;;;41.35;23.40;;;4.00;99.90;;;;;;5032758;28;20563;-70
2022/12/02 00:58:55;;;;;;;45.05;26.63;;;4.00;99.90;;;;;;5027935;28;20088;-70
2022/12/02 01:01:20;;;;;;;43.28;25.40;;;4.00;99.90;;;;;;5030058;28;20045;-70
2022/12/02 01:03:46;;;;;;;43.83;25.17;;;3.90;99.90;;;;;;5032341;28;20051;-70
2022/12/02 01:06:13;;;;;;;43.05;24.85;;;3.90;99.90;;;;;;5046004;28;20116;-70
2022/12/02 01:08:39;;;;;;;42.45;23.77;;;3.90;99.90;;;;;;5032016;28;20029;-70
2022/12/02 01:11:05;;;;;;;44.28;24.40;;;3.90;99.90;;;;;;5033478;28;20486;-70
2022/12/02 01:13:30;;;;;;;44.60;24.77;;;4.00;99.90;;;;;;5031702;28;20108;-70
2022/12/02 01:15:56;;;;;;;43.85;24.52;;;3.90;99.90;;;;;;5033055;28;20113;-70
2022/12/02 01:18:22;;;;;;;44.80;24.48;;;3.90;99.90;;;;;;5024529;28;20029;-70
2022/12/02 01:20:48;;;;;;;48.17;26.40;;;3.90;99.90;;;;;;5031555;28;20029;-70
2022/12/02 01:23:13;;;;;;;48.30;27.67;;;4.00;99.90;;;;;;5029489;28;20091;-69
2022/12/02 01:25:39;;;;;;;45.53;25.48;;;4.00;99.90;;;;;;5033029;28;20056;-70
2022/12/02 01:28:05;;;;;;;40.78;23.88;;;3.90;99.90;;;;;;5030895;28;20492;-70
2022/12/02 01:30:31;;;;;;;44.08;25.50;;;3.90;99.90;;;;;;5032217;28;20022;-70
2022/12/02 01:32:56;;;;;;;42.72;25.10;;;3.90;99.90;;;;;;5028950;28;20029;-70
2022/12/02 01:35:22;;;;;;;43.03;25.05;;;4.00;99.90;;;;;;5031275;28;20021;-70
2022/12/02 01:37:48;;;;;;;42.00;25.17;;;4.00;99.90;;;;;;5022756;28;20040;-70
2022/12/02 01:40:15;;;;;;;44.55;24.67;;;4.00;99.90;;;;;;5030343;28;20484;-70
2022/12/02 01:42:41;;;;;;;42.25;25.25;;;4.00;99.90;;;;;;5031519;28;20095;-69
2022/12/02 01:45:08;;;;;;;48.78;25.85;;;4.10;99.90;;;;;;5032070;28;20111;-70
2022/12/02 01:47:35;;;;;;;48.05;25.70;;;4.10;99.90;;;;;;5046690;28;20506;-70
2022/12/02 01:50:01;;;;;;;44.75;25.13;;;4.00;99.90;;;;;;5030871;28;20029;-70
2022/12/02 01:52:27;;;;;;;42.47;26.00;;;4.10;99.90;;;;;;5031878;28;20495;-70
2022/12/02 01:54:53;;;;;;;43.33;24.42;;;4.10;99.90;;;;;;5031797;28;20029;-70
2022/12/02 01:57:24;;;;;;;47.28;26.33;;;4.10;99.90;;;;;;5030623;28;20025;-70
2022/12/02 01:59:50;;;;;;;46.17;27.13;;;4.10;99.90;;;;;;5023232;28;20049;-69
2022/12/02 02:02:31;;;;;;;49.85;26.92;;;4.10;99.90;;;;;;5032098;28;20033;-69
2022/12/02 02:05:03;;;;;;;43.17;25.42;;;4.10;99.90;;;;;;5031277;28;20033;-69
2022/12/02 02:07:30;;;;;;;47.70;25.83;;;4.10;99.90;;;;;;5031020;28;20026;-70
2022/12/02 02:09:56;;;;;;;44.10;24.55;;;4.10;99.90;;;;;;5026491;28;20033;-69
2022/12/02 02:12:23;;;;;;;43.92;24.98;;;4.10;99.90;;;;;;5031229;28;20510;-69
2022/12/02 02:14:49;;;;;;;43.75;24.25;;;4.10;99.90;;;;;;5030832;28;20038;-70
2022/12/02 02:17:16;;;;;;;41.15;24.42;;;4.10;99.90;;;;;;5030372;28;20122;-71
2022/12/02 02:19:43;;;;;;;43.38;25.90;;;4.10;99.90;;;;;;5030508;28;20040;-71
2022/12/02 02:22:32;;;;;;;43.53;25.38;;;4.10;99.90;;;;;;5031272;28;20168;-70
2022/12/02 02:24:58;;;;;;;49.03;25.33;;;4.10;99.90;;;;;;5028651;28;20038;-70
2022/12/02 02:27:23;;;;;;;42.55;26.10;;;4.20;99.90;;;;;;5029107;28;20545;-69
2022/12/02 02:29:49;;;;;;;43.67;25.40;;;4.10;99.90;;;;;;5029807;28;20037;-69
2022/12/02 02:32:15;;;;;;;44.35;24.35;;;4.10;99.90;;;;;;5029665;28;20411;-70
2022/12/02 02:34:40;;;;;;;42.75;23.50;;;4.10;99.90;;;;;;5031026;28;20056;-69
2022/12/02 02:37:06;;;;;;;44.80;25.98;;;4.10;99.90;;;;;;5030643;28;20029;-70
2022/12/02 02:39:32;;;;;;;40.83;23.23;;;4.10;99.90;;;;;;5029495;28;20037;-70
2022/12/02 02:41:58;;;;;;;39.83;24.05;;;4.10;99.90;;;;;;5030290;28;20037;-69
2022/12/02 02:44:27;;;;;;;44.08;26.25;;;4.10;99.90;;;;;;5030684;28;20096;-71
2022/12/02 02:46:53;;;;;;;44.47;25.25;;;4.10;99.90;;;;;;5029625;28;20029;-70
2022/12/02 02:49:19;;;;;;;41.50;24.08;;;4.10;99.90;;;;;;5029784;28;20518;-70
2022/12/02 02:51:45;;;;;;;39.45;24.02;;;4.10;99.90;;;;;;5031145;28;20056;-70
2022/12/02 02:54:11;;;;;;;39.63;24.27;;;4.10;99.90;;;;;;5028885;28;20061;-69
2022/12/02 02:56:37;;;;;;;40.80;24.83;;;4.10;99.90;;;;;;5031590;28;20117;-70
2022/12/02 02:59:02;;;;;;;43.55;23.23;;;4.10;99.90;;;;;;5029127;28;20500;-70
2022/12/02 03:01:35;;;;;;;42.55;24.95;;;4.10;99.90;;;;;;5028533;28;20472;-70
2022/12/02 03:04:09;;;;;;;44.33;24.83;;;4.10;99.90;;;;;;5025748;28;20338;-70
2022/12/02 03:06:37;;;;;;;43.92;25.23;;;4.10;99.90;;;;;;5028273;28;20033;-70
2022/12/02 03:09:05;;;;;;;41.78;22.73;;;4.10;99.90;;;;;;5029531;28;20568;-71
2022/12/02 03:11:32;;;;;;;40.03;23.45;;;4.10;99.90;;;;;;5030918;28;20068;-70
2022/12/02 03:13:59;;;;;;;36.33;22.65;;;4.10;99.90;;;;;;5030720;28;20065;-70
2022/12/02 03:16:25;;;;;;;38.75;22.15;;;4.20;99.90;;;;;;5032532;28;20026;-70
2022/12/02 03:18:53;;;;;;;40.95;23.05;;;4.10;99.90;;;;;;5021323;28;20138;-70
2022/12/02 03:21:20;;;;;;;42.67;23.75;;;4.10;99.90;;;;;;5031076;28;20045;-70
2022/12/02 03:23:48;;;;;;;41.13;23.73;;;4.20;99.90;;;;;;5030200;28;20041;-70
2022/12/02 03:26:15;;;;;;;39.88;23.48;;;4.20;99.90;;;;;;5026951;28;20192;-71
2022/12/02 03:28:41;;;;;;;38.70;22.77;;;4.20;99.90;;;;;;5027775;28;20032;-69
2022/12/02 03:31:09;;;;;;;34.28;21.25;;;4.20;99.90;;;;;;5021309;28;20601;-70
2022/12/02 03:33:35;;;;;;;36.40;22.17;;;4.20;99.90;;;;;;5018060;28;20041;-71
2022/12/02 03:36:01;;;;;;;36.20;21.98;;;4.20;99.90;;;;;;5029632;28;20029;-70
2022/12/02 03:38:27;;;;;;;35.95;22.15;;;4.20;99.90;;;;;;5047843;28;20026;-70
2022/12/02 03:40:53;;;;;;;33.28;20.35;;;4.20;99.90;;;;;;5034444;28;20060;-70
2022/12/02 03:43:19;;;;;;;39.47;23.05;;;4.20;99.90;;;;;;5029156;28;20080;-70
2022/12/02 03:45:45;;;;;;;36.53;21.98;;;4.20;99.90;;;;;;5032358;28;20030;-70
2022/12/02 03:48:12;;;;;;;36.90;21.70;;;4.20;99.90;;;;;;5031598;28;20377;-70
2022/12/02 03:50:39;;;;;;;37.65;21.30;;;4.20;99.90;;;;;;5033353;28;20033;-70
2022/12/02 03:53:04;;;;;;;37.92;20.60;;;4.20;99.90;;;;;;5033131;28;20037;-70
2022/12/02 03:55:30;;;;;;;35.85;20.67;;;4.20;99.90;;;;;;5032841;28;20109;-70
2022/12/02 03:58:06;;;;;;;33.38;20.73;;;4.20;99.90;;;;;;5033401;28;20041;-70
2022/12/02 04:00:32;;;;;;;34.17;20.15;;;4.20;99.90;;;;;;5031870;28;20042;-70
2022/12/02 04:02:58;;;;;;;35.10;20.33;;;4.20;99.90;;;;;;5033152;28;20045;-69
2022/12/02 04:05:24;;;;;;;34.45;19.80;;;4.20;99.90;;;;;;5031411;28;20032;-69
2022/12/02 04:07:50;;;;;;;32.88;20.80;;;4.20;99.90;;;;;;5034029;28;20037;-69
2022/12/02 04:10:16;;;;;;;30.48;17.88;;;4.20;99.90;;;;;;5032362;28;20052;-69
2022/12/02 04:12:42;;;;;;;33.35;20.30;;;4.20;99.90;;;;;;5033463;28;20468;-69
2022/12/02 04:15:08;;;;;;;35.05;19.48;;;4.20;99.90;;;;;;5033868;28;20026;-69
2022/12/02 04:17:34;;;;;;;36.78;20.65;;;4.20;99.90;;;;;;5033631;28;20475;-69
2022/12/02 04:20:00;;;;;;;34.63;19.23;;;4.20;99.90;;;;;;5031103;28;20100;-69
2022/12/02 04:22:25;;;;;;;32.78;18.90;;;4.10;99.90;;;;;;5034055;28;20148;-69
2022/12/02 04:24:52;;;;;;;33.70;19.23;;;4.10;99.90;;;;;;5031984;28;20037;-70
2022/12/02 04:27:18;;;;;;;32.88;19.20;;;4.10;99.90;;;;;;5032710;28;20964;-69
2022/12/02 04:29:44;;;;;;;30.23;18.10;;;4.20;99.90;;;;;;5032422;28;20037;-69
2022/12/02 04:32:09;;;;;;;31.40;19.67;;;4.10;99.90;;;;;;5032586;28;20018;-70
2022/12/02 04:34:36;;;;;;;32.03;18.20;;;4.10;99.90;;;;;;5033010;28;20511;-70
2022/12/02 04:37:01;;;;;;;28.95;17.98;;;4.20;99.90;;;;;;5031319;28;20043;-69
2022/12/02 04:39:27;;;;;;;31.42;18.30;;;4.10;99.80;;;;;;5023290;28;20444;-69
2022/12/02 04:41:53;;;;;;;32.38;18.92;;;4.20;99.80;;;;;;5029341;28;20029;-70
2022/12/02 04:44:18;;;;;;;32.00;19.58;;;4.20;99.80;;;;;;5029722;28;20067;-69
2022/12/02 04:46:44;;;;;;;30.55;18.73;;;4.20;99.70;;;;;;5032144;28;20029;-70
2022/12/02 04:49:09;;;;;;;27.98;17.50;;;4.20;99.70;;;;;;5031935;28;20477;-69
2022/12/02 04:51:35;;;;;;;33.28;20.25;;;4.20;99.60;;;;;;5031080;28;20124;-70
2022/12/02 04:54:02;;;;;;;29.95;18.17;;;4.20;99.60;;;;;;5031679;28;20099;-69
2022/12/02 04:56:27;;;;;;;28.38;17.52;;;4.20;99.60;;;;;;5031704;28;20132;-70
2022/12/02 04:58:53;;;;;;;28.77;17.83;;;4.20;99.60;;;;;;5030582;28;20572;-69
2022/12/02 05:01:19;;;;;;;26.80;16.63;;;4.20;99.60;;;;;;5031671;28;20311;-69
2022/12/02 05:03:44;;;;;;;29.58;17.15;;;4.20;99.60;;;;;;5026447;28;20054;-70
2022/12/02 05:06:10;;;;;;;32.20;19.63;;;4.20;99.60;;;;;;5016951;28;20025;-69
2022/12/02 05:08:36;;;;;;;28.58;16.92;;;4.20;99.50;;;;;;5032661;28;20029;-69
2022/12/02 05:11:02;;;;;;;29.65;17.58;;;4.10;99.50;;;;;;5031060;28;20037;-69
2022/12/02 05:13:27;;;;;;;29.38;17.60;;;4.10;99.50;;;;;;5028627;28;20034;-69
2022/12/02 05:15:53;;;;;;;32.55;18.58;;;4.10;99.50;;;;;;5028141;28;20111;-69
2022/12/02 05:18:19;;;;;;;30.13;18.52;;;4.00;99.50;;;;;;5030687;28;20029;-70
2022/12/02 05:20:44;;;;;;;25.48;15.93;;;4.00;99.50;;;;;;5032423;28;20033;-69
2022/12/02 05:23:12;;;;;;;28.40;17.85;;;4.00;99.50;;;;;;5031608;28;20044;-69
2022/12/02 05:25:38;;;;;;;26.23;16.88;;;4.00;99.60;;;;;;5031630;28;20025;-70
2022/12/02 05:28:03;;;;;;;32.22;18.05;;;3.90;99.50;;;;;;5032208;28;20495;-70
2022/12/02 05:30:29;;;;;;;26.17;16.60;;;3.90;99.60;;;;;;5031260;28;20454;-70
2022/12/02 05:32:55;;;;;;;26.67;15.80;;;3.90;99.60;;;;;;5032720;28;20045;-69
2022/12/02 05:35:20;;;;;;;29.50;16.70;;;4.00;99.70;;;;;;5032318;28;20030;-69
2022/12/02 05:37:46;;;;;;;26.33;16.13;;;4.00;99.60;;;;;;5031943;28;20029;-69
2022/12/02 05:40:12;;;;;;;26.55;16.50;;;4.00;99.60;;;;;;5031075;28;20059;-69
2022/12/02 05:42:39;;;;;;;27.20;15.52;;;4.00;99.60;;;;;;5022297;28;20052;-69
2022/12/02 05:45:21;;;;;;;23.58;15.18;;;3.90;99.50;;;;;;5024989;28;20116;-69
2022/12/02 05:47:53;;;;;;;27.33;16.27;;;4.00;99.50;;;;;;5032014;28;20034;-69
2022/12/02 05:50:20;;;;;;;26.17;16.08;;;4.00;99.40;;;;;;5030666;28;20051;-70
2022/12/02 05:52:48;;;;;;;23.05;14.73;;;3.90;99.40;;;;;;5031934;28;20043;-69
2022/12/02 05:55:20;;;;;;;22.80;14.77;;;4.00;99.50;;;;;;5028493;28;20028;-68
2022/12/02 05:57:47;;;;;;;29.33;17.13;;;4.00;99.40;;;;;;5032635;28;20060;-70
2022/12/02 06:00:16;;;;;;;27.10;15.35;;;4.00;99.40;;;;;;5043379;28;20412;-70
2022/12/02 06:02:54;;;;;;;23.65;14.25;;;4.00;99.40;;;;;;5031940;28;20041;-70
2022/12/02 06:05:32;;;;;;;24.60;15.80;;;3.90;99.30;;;;;;5031286;28;20041;-70
2022/12/02 06:08:19;;;;;;;24.83;15.60;;;4.00;99.40;;;;;;5030511;28;20036;-68
2022/12/02 06:10:56;;;;;;;23.60;14.48;;;4.00;99.40;;;;;;5017168;28;20125;-69
2022/12/02 06:13:25;;;;;;;25.95;16.40;;;4.00;99.30;;;;;;5021553;28;20025;-68
2022/12/02 06:15:52;;;;;;;24.60;14.43;;;4.00;99.30;;;;;;5024565;28;20033;-70
2022/12/02 06:18:20;;;;;;;28.60;15.77;;;4.00;99.30;;;;;;5031186;28;20037;-70
2022/12/02 06:20:51;;;;;;;27.15;15.68;;;4.00;99.30;;;;;;5026968;28;20026;-70
2022/12/02 06:23:22;;;;;;;25.58;14.57;;;4.00;99.30;;;;;;5031752;28;20091;-70
2022/12/02 06:25:50;;;;;;;25.55;15.52;;;4.00;99.30;;;;;;5032318;28;20033;-70
2022/12/02 06:28:29;;;;;;;25.45;15.68;;;4.00;99.30;;;;;;5028856;28;20029;-70
2022/12/02 06:31:16;;;;;;;28.52;16.05;;;4.10;99.30;;;;;;5036813;28;20026;-70
2022/12/02 06:33:44;;;;;;;30.73;18.20;;;4.10;99.20;;;;;;5019918;28;20045;-71
2022/12/02 06:36:30;;;;;;;27.85;16.73;;;4.00;99.20;;;;;;5031034;28;20033;-71
2022/12/02 06:39:00;;;;;;;27.13;17.48;;;4.00;99.10;;;;;;5029801;28;20034;-69
2022/12/02 06:41:28;;;;;;;25.63;16.17;;;4.00;99.10;;;;;;5029325;28;20037;-69
2022/12/02 06:46:42;;;;;;;26.15;15.82;;;4.00;99.10;;;;;;5028241;28;20030;-70
2022/12/02 06:49:29;;;;;;;25.70;15.85;;;3.90;99.10;;;;;;5029566;28;20056;-70
2022/12/02 06:51:57;;;;;;;28.40;15.60;;;4.00;99.20;;;;;;5031060;28;20037;-70
2022/12/02 06:54:27;;;;;;;23.75;14.85;;;4.00;99.20;;;;;;5028336;28;20030;-70
2022/12/02 06:56:56;;;;;;;23.13;14.73;;;4.00;99.20;;;;;;5031146;28;20025;-70
2022/12/02 06:59:22;;;;;;;27.50;15.32;;;4.10;99.30;;;;;;5030815;28;20099;-70
2022/12/02 07:01:54;;;;;;;27.20;17.13;;;4.00;99.20;;;;;;5028754;28;20112;-70
2022/12/02 07:04:39;;;;;;;27.52;16.30;;;4.10;99.20;;;;;;5026211;28;20078;-69
2022/12/02 07:07:16;;;;;;;27.92;15.60;;;4.00;99.10;;;;;;5028287;28;20093;-70
2022/12/02 07:09:47;;;;;;;30.25;17.17;;;4.00;99.20;;;;;;5029929;28;20021;-70
2022/12/02 07:12:23;;;;;;;28.88;16.90;;;4.00;99.10;;;;;;5030870;28;20026;-71
2022/12/02 07:14:53;;;;;;;29.20;17.70;;;4.00;99.10;;;;;;5033077;28;20040;-70
2022/12/02 07:17:29;;;;;;;30.05;18.13;;;4.00;99.20;;;;;;5032388;28;20069;-70
2022/12/02 07:20:24;;;;;;;29.00;17.67;;;4.00;99.20;;;;;;5029631;28;20108;-71
2022/12/02 07:22:57;;;;;;;29.75;18.05;;;3.90;99.20;;;;;;5033287;28;20037;-70
2022/12/02 07:25:26;;;;;;;30.20;17.95;;;4.00;99.20;;;;;;5049727;28;20044;-71
2022/12/02 07:27:52;;;;;;;32.88;18.55;;;4.00;99.20;;;;;;5033900;28;20041;-70
2022/12/02 07:30:30;;;;;;;30.70;17.25;;;4.00;99.20;;;;;;5035344;28;20423;-71
2022/12/02 07:32:57;;;;;;;31.70;18.25;;;4.10;99.30;;;;;;5032446;28;20041;-75
2022/12/02 07:35:23;;;;;;;30.90;18.25;;;4.10;99.30;;;;;;5032919;28;20025;-72
2022/12/02 07:37:49;;;;;;;31.85;19.55;;;4.00;99.20;;;;;;5034229;28;20029;-70
2022/12/02 07:40:17;;;;;;;29.38;18.23;;;4.00;99.20;;;;;;5035474;28;20087;-70
2022/12/02 07:42:43;;;;;;;32.45;18.25;;;4.00;99.30;;;;;;5031968;28;20056;-69
2022/12/02 07:45:12;;;;;;;32.22;17.80;;;4.00;99.30;;;;;;5033847;28;20104;-69
2022/12/02 07:47:38;;;;;;;28.90;14.98;;;4.00;99.50;;;;;;5032740;28;20030;-69
2022/12/02 07:50:04;;;;;;;29.13;16.52;;;4.00;99.30;;;;;;5030132;28;20049;-70
2022/12/02 07:52:30;;;;;;;27.42;16.73;;;3.90;99.40;;;;;;5023093;28;20029;-70
2022/12/02 07:54:56;;;;;;;29.17;16.85;;;3.90;99.40;;;;;;5034216;28;20091;-70
2022/12/02 07:57:22;;;;;;;27.58;16.90;;;3.90;99.40;;;;;;5029870;28;20026;-69
2022/12/02 07:59:48;;;;;;;29.27;16.80;;;3.90;99.50;;;;;;5031359;28;20045;-69
2022/12/02 08:02:14;;;;;;;29.23;17.50;;;3.90;99.60;;;;;;5030998;28;20091;-70
2022/12/02 08:04:40;;;;;;;28.83;18.02;;;3.90;99.70;;;;;;5033284;28;20029;-71
2022/12/02 08:07:06;;;;;;;24.60;14.13;;;3.80;99.70;;;;;;5030335;28;20026;-70
2022/12/02 08:09:32;;;;;;;28.15;17.25;;;3.80;99.80;;;;;;5051046;28;20502;-71
2022/12/02 08:11:58;;;;;;;32.50;18.48;;;3.90;99.80;;;;;;5031538;28;20029;-70
2022/12/02 08:14:24;;;;;;;32.25;17.42;;;3.90;99.90;;;;;;5030299;28;20314;-69
2022/12/02 08:16:50;;;;;;;29.88;17.25;;;3.90;99.90;;;;;;5033177;28;20037;-70
2022/12/02 08:19:17;;;;;;;31.45;18.23;;;3.90;99.90;;;;;;5032351;28;20029;-71
2022/12/02 08:21:43;;;;;;;30.05;16.35;;;3.90;99.90;;;;;;5026751;28;20026;-69
2022/12/02 08:24:08;;;;;;;25.55;15.23;;;3.80;99.90;;;;;;5027246;28;20030;-71
2022/12/02 08:26:34;;;;;;;30.98;17.48;;;3.90;99.90;;;;;;5026592;28;20033;-70
2022/12/02 08:29:00;;;;;;;28.77;16.63;;;3.90;99.90;;;;;;5032776;28;20034;-68
2022/12/02 08:31:27;;;;;;;28.30;16.95;;;3.90;99.90;;;;;;5047208;28;20535;-69
2022/12/02 08:33:53;;;;;;;27.85;16.20;;;3.90;99.90;;;;;;5046140;28;20369;-69
2022/12/02 08:36:20;;;;;;;34.55;20.20;;;3.90;99.90;;;;;;5032222;28;20032;-70
2022/12/02 08:38:46;;;;;;;42.25;22.35;;;3.90;99.90;;;;;;5031965;28;20037;-70
2022/12/02 08:41:11;;;;;;;47.28;24.95;;;3.90;99.90;;;;;;5033184;28;20166;-71
2022/12/02 08:43:37;;;;;;;43.72;22.40;;;3.90;99.90;;;;;;5033389;28;20034;-71
2022/12/02 08:46:04;;;;;;;42.60;21.95;;;3.90;99.90;;;;;;5031519;28;20037;-72
2022/12/02 08:48:30;;;;;;;46.85;25.52;;;3.90;99.90;;;;;;5014471;28;20026;-72
2022/12/02 08:50:56;;;;;;;38.03;20.33;;;3.90;99.90;;;;;;5032316;28;20419;-72
2022/12/02 08:53:22;;;;;;;39.75;22.20;;;3.90;99.90;;;;;;5029922;28;20026;-72
2022/12/02 08:55:48;;;;;;;39.83;23.58;;;3.90;99.90;;;;;;5032059;28;20026;-71
2022/12/02 08:58:14;;;;;;;37.13;20.63;;;3.90;99.90;;;;;;5028553;28;20032;-71
2022/12/02 09:00:40;;;;;;;36.00;19.38;;;3.90;99.90;;;;;;5021913;28;20492;-73
2022/12/02 09:03:07;;;;;;;36.20;20.63;;;3.90;99.90;;;;;;5023433;28;20049;-72
2022/12/02 09:05:33;;;;;;;33.10;17.83;;;3.90;99.90;;;;;;5027328;28;20033;-72
2022/12/02 09:07:59;;;;;;;34.97;18.65;;;3.90;99.90;;;;;;5032768;28;20033;-72
2022/12/02 09:10:25;;;;;;;35.92;21.20;;;4.00;99.90;;;;;;5020319;28;20547;-69
2022/12/02 09:12:52;;;;;;;31.10;18.17;;;4.00;99.90;;;;;;5028909;28;20460;-70
2022/12/02 09:15:19;;;;;;;33.35;18.13;;;4.00;99.90;;;;;;5032563;28;20033;-70
2022/12/02 09:17:45;;;;;;;31.25;18.58;;;4.00;99.90;;;;;;5031566;28;20104;-70
2022/12/02 09:20:12;;;;;;;28.67;17.52;;;4.10;99.90;;;;;;5032487;28;20120;-70
2022/12/02 09:22:44;;;;;;;32.70;17.10;;;4.10;99.90;;;;;;5017767;28;20033;-70
2022/12/02 09:25:11;;;;;;;30.75;17.55;;;4.20;99.80;;;;;;5031746;28;20053;-71
2022/12/02 09:27:38;;;;;;;28.33;16.95;;;4.20;99.70;;;;;;5031034;28;20045;-72
2022/12/02 09:30:04;;;;;;;28.27;16.23;;;4.20;99.80;;;;;;5033703;28;20041;-72
2022/12/02 09:32:30;;;;;;;31.35;18.02;;;4.20;99.60;;;;;;5025136;28;20142;-71
2022/12/02 09:34:55;;;;;;;32.70;18.05;;;4.20;99.50;;;;;;5027525;28;20549;-71
2022/12/02 09:37:22;;;;;;;31.02;17.73;;;4.20;99.50;;;;;;5029344;28;20029;-71
2022/12/02 09:39:48;;;;;;;35.65;19.10;;;4.30;99.50;;;;;;5030271;28;20029;-71
2022/12/02 09:42:14;;;;;;;35.97;18.02;;;4.30;99.70;;;;;;5025949;28;20567;-71
2022/12/02 09:44:42;;;;;;;32.80;18.50;;;4.30;99.50;;;;;;5023489;28;20052;-72
2022/12/02 09:47:09;;;;;;;28.05;16.55;;;4.30;99.30;;;;;;5031715;28;20041;-71
2022/12/02 09:49:35;;;;;;;36.13;19.42;;;4.20;99.30;;;;;;5031799;28;20022;-71
2022/12/02 09:52:03;;;;;;;36.42;20.25;;;4.20;99.50;;;;;;5028154;28;20094;-72
2022/12/02 09:54:29;;;;;;;30.58;19.00;;;4.20;99.30;;;;;;5017898;28;20035;-71
2022/12/02 09:56:55;;;;;;;29.45;17.38;;;4.20;99.30;;;;;;5029527;28;20033;-70
2022/12/02 09:59:21;;;;;;;31.58;16.58;;;4.20;99.40;;;;;;5029698;28;20049;-69
2022/12/02 10:01:47;;;;;;;32.28;19.63;;;4.20;99.30;;;;;;5034496;28;20114;-72
2022/12/02 10:04:33;;;;;;;30.05;16.38;;;4.10;99.30;;;;;;5028706;28;20044;-69
2022/12/02 10:06:59;;;;;;;31.05;17.60;;;4.20;99.40;;;;;;5023963;28;20388;-69
2022/12/02 10:09:27;;;;;;;32.17;18.92;;;4.20;99.40;;;;;;5047772;28;20116;-70
2022/12/02 10:11:53;;;;;;;36.13;17.60;;;4.20;99.30;;;;;;5029246;28;20037;-72
2022/12/02 10:14:19;;;;;;;31.73;18.48;;;4.20;99.30;;;;;;5031242;28;20037;-70
2022/12/02 10:16:45;;;;;;;29.20;16.85;;;4.20;99.40;;;;;;5031160;28;20112;-70
2022/12/02 10:19:16;;;;;;;30.90;16.48;;;4.20;99.40;;;;;;5031563;28;20182;-71
2022/12/02 10:21:41;;;;;;;33.28;17.08;;;4.20;99.40;;;;;;5027568;28;20074;-70
2022/12/02 10:24:08;;;;;;;29.25;16.30;;;4.20;99.40;;;;;;5029569;28;20045;-72
2022/12/02 10:26:48;;;;;;;34.17;18.83;;;4.30;99.40;;;;;;5022011;28;20040;-70
2022/12/02 10:29:17;;;;;;;35.95;19.30;;;4.20;99.40;;;;;;5022881;28;20090;-70
2022/12/02 10:31:55;;;;;;;33.15;18.52;;;4.20;99.30;;;;;;5030432;28;20091;-69
2022/12/02 10:34:22;;;;;;;31.15;17.27;;;4.20;99.40;;;;;;5031910;28;20029;-75
2022/12/02 10:36:49;;;;;;;33.92;18.48;;;4.20;99.40;;;;;;5043795;28;20049;-69
2022/12/02 10:39:29;;;;;;;34.83;19.95;;;4.20;99.40;;;;;;5030964;28;20051;-69
2022/12/02 10:42:06;;;;;;;33.28;18.88;;;4.10;99.50;;;;;;5030148;28;20029;-70
2022/12/02 10:44:35;;;;;;;35.75;20.05;;;4.10;99.50;;;;;;5022139;28;20022;-70
2022/12/02 10:47:10;;;;;;;37.00;19.08;;;4.10;99.50;;;;;;5028780;28;20022;-69
2022/12/02 10:49:35;;;;;;;44.65;21.08;;;4.10;99.60;;;;;;5029747;28;20395;-69
2022/12/02 10:52:09;;;;;;;41.30;21.17;;;4.00;99.50;;;;;;5022669;28;20030;-70
2022/12/02 10:54:38;;;;;;;39.53;20.02;;;4.00;99.60;;;;;;5033951;28;20183;-69
2022/12/02 10:57:05;;;;;;;37.97;20.67;;;4.00;99.70;;;;;;5027768;28;20041;-69
2022/12/02 10:59:32;;;;;;;38.15;19.67;;;4.00;99.70;;;;;;5030026;28;20045;-69
2022/12/02 11:01:59;;;;;;;35.47;18.77;;;4.00;99.70;;;;;;5032678;28;20029;-68
2022/12/02 11:04:26;;;;;;;39.90;20.33;;;4.00;99.70;;;;;;5029024;28;20025;-67
2022/12/02 11:06:53;;;;;;;38.60;22.02;;;4.10;99.70;;;;;;5030966;28;20033;-69
2022/12/02 11:09:24;;;;;;;36.25;19.48;;;4.10;99.70;;;;;;5029525;28;20045;-68
2022/12/02 11:11:49;;;;;;;40.63;19.50;;;4.10;99.70;;;;;;5024210;28;20056;-67
2022/12/02 11:14:40;;;;;;;41.90;20.42;;;4.20;99.60;;;;;;5025865;28;20339;-68
2022/12/02 11:17:08;;;;;;;39.33;21.27;;;4.20;99.70;;;;;;5022491;28;20033;-68
2022/12/02 11:19:34;;;;;;;39.20;21.48;;;4.20;99.70;;;;;;5024378;28;21021;-69
2022/12/02 11:22:00;;;;;;;41.17;22.35;;;4.20;99.70;;;;;;5024541;28;20021;-69
2022/12/02 11:24:25;;;;;;;39.10;21.27;;;4.20;99.60;;;;;;5023951;28;20033;-69
2022/12/02 11:27:02;;;;;;;35.40;19.20;;;4.20;99.60;;;;;;5029191;28;20017;-68
2022/12/02 11:29:37;;;;;;;39.60;21.48;;;4.30;99.60;;;;;;5035541;28;20028;-68
2022/12/02 11:32:40;;;;;;;43.35;22.55;;;4.20;99.50;;;;;;5033937;28;20032;-69
2022/12/02 11:35:14;;;;;;;40.15;21.05;;;4.20;99.50;;;;;;5032159;28;20033;-71
2022/12/02 11:37:42;;;;;;;42.38;21.35;;;4.10;99.30;;;;;;5034631;28;20033;-71
2022/12/02 11:40:12;;;;;;;42.08;22.90;;;4.10;99.30;;;;;;5043430;28;20025;-71
2022/12/02 11:42:40;;;;;;;37.22;21.20;;;4.10;99.40;;;;;;5037673;28;20037;-70
2022/12/02 11:45:16;;;;;;;38.40;21.80;;;4.10;99.40;;;;;;5042085;28;20029;-70
2022/12/02 11:48:02;;;;;;;39.67;23.73;;;4.10;99.20;;;;;;5043081;28;20060;-70
2022/12/02 11:50:38;;;;;;;39.38;21.92;;;4.10;99.20;;;;;;5044064;28;20013;-70
2022/12/02 11:53:30;;;;;;;39.60;21.77;;;4.00;99.40;;;;;;5040643;28;20029;-70
2022/12/02 11:55:57;;;;;;;40.75;21.52;;;4.00;99.40;;;;;;5040971;28;20038;-72
2022/12/02 11:58:29;;;;;;;38.78;21.73;;;4.00;99.20;;;;;;5039407;28;20112;-71
2022/12/02 12:01:18;;;;;;;41.35;21.50;;;4.00;99.30;;;;;;5046069;28;20025;-72
2022/12/02 12:03:49;;;;;;;45.60;22.35;;;4.10;99.30;;;;;;5041589;28;20077;-71
2022/12/02 12:06:22;;;;;;;42.60;22.55;;;4.10;99.20;;;;;;5035315;28;20056;-71
2022/12/02 12:08:55;;;;;;;39.28;22.30;;;4.10;99.30;;;;;;5039333;28;20034;-70
2022/12/02 12:11:27;;;;;;;36.08;20.83;;;4.10;99.20;;;;;;5043692;28;20032;-70
2022/12/02 12:14:09;;;;;;;41.58;20.95;;;4.10;99.20;;;;;;5047021;28;20037;-71
2022/12/02 12:16:37;;;;;;;41.78;23.75;;;4.10;99.20;;;;;;5043992;28;20071;-72
2022/12/02 12:19:26;;;;;;;38.95;20.90;;;4.10;99.20;;;;;;5046806;28;20022;-72
2022/12/02 12:21:54;;;;;;;39.38;22.30;;;4.20;99.20;;;;;;5043085;28;20056;-72
2022/12/02 12:24:21;;;;;;;41.47;22.55;;;4.10;99.20;;;;;;5047795;28;20017;-71
2022/12/02 12:26:51;;;;;;;41.83;21.52;;;4.10;99.20;;;;;;5045065;28;20029;-70
2022/12/02 12:29:19;;;;;;;38.53;20.75;;;4.10;99.20;;;;;;5048053;28;20052;-71
2022/12/02 12:31:44;;;;;;;37.75;20.27;;;4.10;99.20;;;;;;5041654;28;20032;-72
2022/12/02 12:34:10;;;;;;;40.85;21.70;;;4.10;99.20;;;;;;5036757;28;20108;-71
2022/12/02 12:36:36;;;;;;;41.45;22.77;;;4.10;99.20;;;;;;5037396;28;20045;-71
2022/12/02 12:39:04;;;;;;;38.92;21.30;;;4.20;99.20;;;;;;5035334;28;20095;-71
2022/12/02 12:41:30;;;;;;;47.95;22.23;;;4.20;99.20;;;;;;5037443;28;20034;-70
2022/12/02 12:43:56;;;;;;;43.55;23.90;;;4.10;99.00;;;;;;5035799;28;20071;-69
2022/12/02 12:46:21;;;;;;;42.08;22.92;;;4.10;99.00;;;;;;5051139;28;20018;-70
2022/12/02 12:48:47;;;;;;;40.65;21.15;;;4.10;98.80;;;;;;5035373;28;20425;-71